createdAt,value
2024-04-19T00:01:54.215Z,1.69
2024-04-19T00:07:00.301Z,1.60
2024-04-19T00:12:07.285Z,1.48
2024-04-19T00:17:13.811Z,1.36
2024-04-19T00:22:20.198Z,1.27
2024-04-19T00:27:26.320Z,1.22
2024-04-19T00:32:32.720Z,1.18
2024-04-19T00:37:38.736Z,1.15
2024-04-19T00:42:44.874Z,1.08
2024-04-19T00:47:51.132Z,1.04
2024-04-19T00:52:57.343Z,1.05
2024-04-19T00:58:04.286Z,1.07
2024-04-19T01:03:12.047Z,1.07
2024-04-19T01:08:18.459Z,1.03
2024-04-19T01:13:24.538Z,0.99
2024-04-19T01:18:30.826Z,1.02
2024-04-19T01:23:37.646Z,1.02
2024-04-19T01:28:45.147Z,0.97
2024-04-19T01:33:51.216Z,0.89
2024-04-19T01:38:57.177Z,0.86
2024-04-19T01:44:03.342Z,0.86
2024-04-19T01:49:09.483Z,0.83
2024-04-19T01:54:16.675Z,0.79
2024-04-19T01:59:22.760Z,0.71
2024-04-19T02:04:29.171Z,0.66
2024-04-19T02:09:36.158Z,0.68
2024-04-19T02:14:42.202Z,0.70
2024-04-19T02:19:48.155Z,0.66
2024-04-19T02:24:54.455Z,0.61
2024-04-19T02:30:19.237Z,0.61
2024-04-19T02:35:25.857Z,0.68
2024-04-19T02:40:32.303Z,0.67
2024-04-19T02:45:52.948Z,0.64
2024-04-19T02:51:04.913Z,0.61
2024-04-19T02:56:10.979Z,0.60
2024-04-19T03:01:17.112Z,0.61
2024-04-19T03:06:24.779Z,0.59
2024-04-19T03:11:30.832Z,0.58
2024-04-19T03:16:37.011Z,0.54
2024-04-19T03:21:43.052Z,0.55
2024-04-19T03:26:49.251Z,0.57
2024-04-19T03:31:55.282Z,0.62
2024-04-19T03:37:01.391Z,0.61
2024-04-19T03:42:15.269Z,0.54
2024-04-19T03:47:21.443Z,0.48
2024-04-19T03:52:27.818Z,0.46
2024-04-19T03:57:34.145Z,0.50
2024-04-19T04:02:40.074Z,0.51
2024-04-19T04:07:46.209Z,0.54
2024-04-19T04:12:55.562Z,0.68
2024-04-19T04:18:03.998Z,0.91
2024-04-19T04:23:10.159Z,1.32
2024-04-19T04:28:16.253Z,2.49
2024-04-19T04:33:22.535Z,2.68
2024-04-19T04:38:28.721Z,2.92
2024-04-19T04:43:34.923Z,3.05
2024-04-19T04:48:41.261Z,3.11
2024-04-19T04:53:47.272Z,3.20
2024-04-19T04:58:53.219Z,3.32
2024-04-19T05:03:59.322Z,3.42
2024-04-19T05:09:05.469Z,3.51
2024-04-19T05:14:11.414Z,5.83
2024-04-19T05:19:17.647Z,10.02
2024-04-19T05:24:23.932Z,13.02
2024-04-19T05:29:29.895Z,13.33
2024-04-19T05:34:37.177Z,12.99
2024-04-19T05:39:43.472Z,11.87
2024-04-19T05:44:49.620Z,11.49
2024-04-19T05:49:55.890Z,14.39
2024-04-19T05:55:02.274Z,14.96
2024-04-19T06:00:09.667Z,14.25
2024-04-19T06:05:15.975Z,12.77
2024-04-19T06:10:22.130Z,11.04
2024-04-19T06:15:28.303Z,9.69
2024-04-19T06:20:38.068Z,8.62
2024-04-19T06:25:44.418Z,8.00
2024-04-19T06:30:50.879Z,7.84
2024-04-19T06:35:59.734Z,7.88
2024-04-19T06:41:06.765Z,8.05
2024-04-19T06:46:14.885Z,8.67
2024-04-19T06:51:21.025Z,8.98
2024-04-19T06:56:27.193Z,8.67
2024-04-19T07:01:34.250Z,8.22
2024-04-19T07:06:42.811Z,7.91
2024-04-19T07:11:50.560Z,7.64
2024-04-19T07:16:56.651Z,7.66
2024-04-19T07:22:02.828Z,8.06
2024-04-19T07:27:08.754Z,8.00
2024-04-19T07:32:15.043Z,7.85
2024-04-19T07:37:21.069Z,8.01
2024-04-19T07:42:30.213Z,8.44
2024-04-19T07:47:36.351Z,8.97
2024-04-19T07:52:42.495Z,9.38
2024-04-19T07:57:49.883Z,9.70
2024-04-19T08:02:56.089Z,9.93
2024-04-19T08:08:02.726Z,10.08
2024-04-19T08:13:09.308Z,10.27
2024-04-19T08:18:15.385Z,10.93
2024-04-19T08:23:21.576Z,11.12
2024-04-19T08:28:28.666Z,10.97
2024-04-19T08:33:34.728Z,11.31
2024-04-19T08:38:40.753Z,11.96
2024-04-19T08:43:47.344Z,12.13
2024-04-19T08:48:53.963Z,12.22
2024-04-19T08:54:00.229Z,12.22
2024-04-19T08:59:06.588Z,11.88
2024-04-19T09:04:15.451Z,11.63
2024-04-19T09:09:22.172Z,11.53
2024-04-19T09:14:28.351Z,12.14
2024-04-19T09:19:34.584Z,13.56
2024-04-19T09:24:41.717Z,14.40
2024-04-19T09:29:47.838Z,14.45
2024-04-19T09:34:53.779Z,13.80
2024-04-19T09:40:00.627Z,13.34
2024-04-19T09:45:09.709Z,13.71
2024-04-19T09:50:17.187Z,14.89
2024-04-19T09:55:29.688Z,16.55
2024-04-19T10:00:36.158Z,17.15
2024-04-19T10:05:42.460Z,16.91
2024-04-19T10:10:48.503Z,17.43
2024-04-19T10:15:58.568Z,17.73
2024-04-19T10:21:05.102Z,16.79
2024-04-19T10:26:11.431Z,16.22
2024-04-19T10:31:17.770Z,15.32
2024-04-19T10:36:34.824Z,14.53
2024-04-19T10:41:53.637Z,13.83
2024-04-19T10:46:59.640Z,13.21
2024-04-19T10:52:06.162Z,13.07
2024-04-19T10:57:12.715Z,13.94
2024-04-19T11:02:19.596Z,13.86
2024-04-19T11:07:25.809Z,13.10
2024-04-19T11:12:31.859Z,13.53
2024-04-19T11:17:40.451Z,14.76
2024-04-19T11:22:47.728Z,16.24
2024-04-19T11:27:54.148Z,17.69
2024-04-19T11:33:01.258Z,18.47
2024-04-19T11:38:07.467Z,18.06
2024-04-19T11:43:13.766Z,16.77
2024-04-19T11:48:25.313Z,16.94
2024-04-19T11:53:31.738Z,17.41
2024-04-19T11:58:37.886Z,17.44
2024-04-19T12:03:43.988Z,17.64
2024-04-19T12:08:50.500Z,17.84
2024-04-19T12:14:50.542Z,17.39
2024-04-19T12:19:23.494Z,17.11
2024-04-19T12:24:36.835Z,16.51
2024-04-19T12:29:46.876Z,15.92
2024-04-19T12:34:53.583Z,15.38
2024-04-19T12:40:00.031Z,14.89
2024-04-19T12:45:06.975Z,14.74
2024-04-19T12:50:13.232Z,14.98
2024-04-19T12:55:19.183Z,15.60
2024-04-19T13:00:25.423Z,15.52
2024-04-19T13:05:31.912Z,15.26
2024-04-19T13:10:41.955Z,14.91
2024-04-19T13:15:47.307Z,14.78
2024-04-19T13:20:53.499Z,14.66
2024-04-19T13:25:59.479Z,14.54
2024-04-19T13:31:05.785Z,14.74
2024-04-19T13:36:12.028Z,15.21
2024-04-19T13:41:18.792Z,15.21
2024-04-19T13:46:25.260Z,14.92
2024-04-19T13:51:31.682Z,14.42
2024-04-19T13:56:38.462Z,13.91
2024-04-19T14:01:44.733Z,13.50
2024-04-19T14:06:50.859Z,13.34
2024-04-19T14:11:58.281Z,13.19
2024-04-19T14:17:05.409Z,13.22
2024-04-19T14:22:13.214Z,13.21
2024-04-19T14:27:19.238Z,13.13
2024-04-19T14:32:25.717Z,12.90
2024-04-19T14:37:31.861Z,12.66
2024-04-19T14:42:40.385Z,12.48
2024-04-19T14:47:46.768Z,12.38
2024-04-19T14:53:00.178Z,12.08
2024-04-19T14:58:10.530Z,11.69
2024-04-19T15:03:18.202Z,11.29
2024-04-19T15:08:24.597Z,10.87
2024-04-19T15:13:32.522Z,10.52
2024-04-19T15:18:40.938Z,10.20
2024-04-19T15:23:47.074Z,9.96
2024-04-19T15:28:53.447Z,9.38
2024-04-19T15:34:09.871Z,8.67
2024-04-19T15:39:25.816Z,8.02
2024-04-19T15:44:31.878Z,7.52
2024-04-19T15:49:38.062Z,7.05
2024-04-19T15:54:44.407Z,6.73
2024-04-19T15:59:51.281Z,6.50
2024-04-19T16:04:57.590Z,6.31
2024-04-19T16:10:04.138Z,6.16
2024-04-19T16:15:11.717Z,6.12
2024-04-19T16:20:18.756Z,6.18
2024-04-19T16:25:25.099Z,6.25
2024-04-19T16:30:31.067Z,6.30
2024-04-19T16:35:44.093Z,6.28
2024-04-19T16:40:57.318Z,6.25
2024-04-19T16:46:03.600Z,6.31
2024-04-19T16:51:10.091Z,6.30
2024-04-19T16:56:18.140Z,6.32
2024-04-19T17:01:24.899Z,6.36
2024-04-19T17:06:30.958Z,6.41
2024-04-19T17:11:37.119Z,6.47
2024-04-19T17:16:44.820Z,6.48
2024-04-19T17:21:50.994Z,6.51
2024-04-19T17:26:57.126Z,6.51
2024-04-19T17:32:03.290Z,6.46
2024-04-19T17:37:10.767Z,6.42
2024-04-19T17:42:18.767Z,6.38
2024-04-19T17:47:25.412Z,6.34
2024-04-19T17:52:31.824Z,6.30
2024-04-19T17:57:38.035Z,6.26
2024-04-19T18:02:44.260Z,6.25
2024-04-19T18:07:50.359Z,6.21
2024-04-19T18:12:56.983Z,6.14
2024-04-19T18:18:04.695Z,6.10
2024-04-19T18:23:13.979Z,6.10
2024-04-19T18:28:20.946Z,6.05
2024-04-19T18:33:27.568Z,5.96
2024-04-19T18:38:33.860Z,5.90
2024-04-19T18:43:41.220Z,5.84
2024-04-19T18:48:47.394Z,5.76
2024-04-19T18:53:57.749Z,5.69
2024-04-19T18:59:03.932Z,5.60
2024-04-19T19:04:10.078Z,5.55
2024-04-19T19:09:17.371Z,5.52
2024-04-19T19:14:23.678Z,5.50
2024-04-19T19:19:30.262Z,5.48
2024-04-19T19:24:36.407Z,5.49
2024-04-19T19:29:42.823Z,5.49
2024-04-19T19:34:50.159Z,5.50
2024-04-19T19:40:00.472Z,5.49
2024-04-19T19:45:07.983Z,5.52
2024-04-19T19:50:14.070Z,5.52
2024-04-19T19:55:20.066Z,5.50
2024-04-19T20:00:45.074Z,5.44
2024-04-19T20:05:52.686Z,5.40
2024-04-19T20:10:58.971Z,5.34
2024-04-19T20:16:05.650Z,5.25
2024-04-19T20:21:11.809Z,5.17
2024-04-19T20:26:17.915Z,5.12
2024-04-19T20:31:24.295Z,5.08
2024-04-19T20:36:30.309Z,5.04
2024-04-19T20:41:38.198Z,5.02
2024-04-19T20:46:44.550Z,5.01
2024-04-19T20:51:50.817Z,4.95
2024-04-19T20:56:57.073Z,4.87
2024-04-19T21:02:04.214Z,4.80
2024-04-19T21:07:10.300Z,4.74
2024-04-19T21:12:16.673Z,4.69
2024-04-19T21:17:25.436Z,4.65
2024-04-19T21:22:32.963Z,4.66
2024-04-19T21:27:40.358Z,4.69
2024-04-19T21:32:46.555Z,4.71
2024-04-19T21:37:53.423Z,4.72
2024-04-19T21:42:59.871Z,4.76
2024-04-19T21:48:07.070Z,4.81
2024-04-19T21:53:13.220Z,4.83
2024-04-19T21:58:19.199Z,4.87
2024-04-19T22:03:25.490Z,4.91
2024-04-19T22:08:31.682Z,4.90
2024-04-19T22:13:37.946Z,4.87
2024-04-19T22:18:44.176Z,4.88
2024-04-19T22:23:50.169Z,4.93
2024-04-19T22:28:56.264Z,4.94
2024-04-19T22:34:02.660Z,4.95
2024-04-19T22:39:08.883Z,4.96
2024-04-19T22:44:15.091Z,5.00
2024-04-19T22:49:21.188Z,5.04
2024-04-19T22:54:27.245Z,5.07
2024-04-19T22:59:33.276Z,5.09
2024-04-19T23:04:39.461Z,5.13
2024-04-19T23:09:45.637Z,5.17
2024-04-19T23:14:51.716Z,5.16
2024-04-19T23:19:58.122Z,5.19
2024-04-19T23:25:05.051Z,5.20
2024-04-19T23:30:11.932Z,5.21
2024-04-19T23:35:18.244Z,5.20
2024-04-19T23:40:25.249Z,5.17
2024-04-19T23:45:32.971Z,5.16
2024-04-19T23:50:39.326Z,5.16
2024-04-19T23:55:45.489Z,5.17
